Time;durP1;ratioP1;P1;durP2;ratioP2;P2;SDS_P1;SDS_P2;PMS_P1;PMS_P2;Temp;Humidity;BMP_temperature;BMP_pressure;BME280_temperature;BME280_humidity;BME280_pressure;Samples;Min_cycle;Max_cycle;Signal;HPM_P1;HPM_P2
2022/06/04 06:22:48;;;;;;;4.78;4.30;;;16.10;99.90;;;;;;5090813;28;20541;-71
2022/06/04 06:25:16;;;;;;;4.72;4.35;;;16.00;99.90;;;;;;5090875;28;20188;-72
2022/06/04 06:27:42;;;;;;;4.30;4.00;;;16.00;99.90;;;;;;5090902;28;20170;-71
2022/06/04 06:30:09;;;;;;;5.75;4.47;;;16.10;99.90;;;;;;5090821;28;20297;-71
2022/06/04 06:32:35;;;;;;;5.25;4.85;;;16.10;99.90;;;;;;5090671;28;20664;-71
2022/06/04 06:35:01;;;;;;;5.03;4.72;;;16.20;99.90;;;;;;5090800;28;20164;-71
2022/06/04 06:37:27;;;;;;;5.43;4.60;;;16.20;99.90;;;;;;5089430;28;20172;-71
2022/06/04 06:39:53;;;;;;;5.10;4.38;;;16.20;99.90;;;;;;5090760;28;20247;-71
2022/06/04 06:42:19;;;;;;;4.07;3.63;;;16.30;99.90;;;;;;5090503;28;20552;-71
2022/06/04 06:44:44;;;;;;;5.32;4.47;;;16.40;99.90;;;;;;5090459;28;20246;-71
2022/06/04 06:47:10;;;;;;;8.88;4.38;;;16.50;99.90;;;;;;5090334;28;20644;-71
2022/06/04 06:49:36;;;;;;;6.22;4.40;;;16.50;99.90;;;;;;5090432;28;20167;-71
2022/06/04 06:52:03;;;;;;;3.80;3.50;;;16.50;99.90;;;;;;5090415;28;20281;-71
2022/06/04 06:54:33;;;;;;;4.57;4.18;;;16.60;99.90;;;;;;5088955;28;20172;-72
2022/06/04 06:57:00;;;;;;;4.70;4.40;;;16.70;99.90;;;;;;5089087;28;20187;-72
2022/06/04 06:59:26;;;;;;;5.47;4.20;;;16.80;99.90;;;;;;5090170;28;20199;-72
2022/06/04 07:01:54;;;;;;;4.72;4.25;;;16.80;99.90;;;;;;5090177;28;20199;-71
2022/06/04 07:04:21;;;;;;;4.30;4.00;;;16.90;99.90;;;;;;5090174;28;20239;-71
2022/06/04 07:06:58;;;;;;;7.20;4.53;;;17.00;99.90;;;;;;5090154;28;20548;-71
2022/06/04 07:09:39;;;;;;;4.03;3.80;;;17.00;99.90;;;;;;5090084;28;20159;-71
2022/06/04 07:12:07;;;;;;;4.07;3.88;;;17.20;99.90;;;;;;5090018;28;20164;-72
2022/06/04 07:14:32;;;;;;;4.57;4.18;;;17.30;99.90;;;;;;5090045;28;20172;-72
2022/06/04 07:16:58;;;;;;;8.85;3.97;;;17.30;99.90;;;;;;5090030;28;20167;-72
2022/06/04 07:19:25;;;;;;;5.13;4.30;;;17.50;99.90;;;;;;5089961;28;20618;-72
2022/06/04 07:21:53;;;;;;;5.03;4.47;;;17.60;99.90;;;;;;5089644;28;20757;-72
2022/06/04 07:24:19;;;;;;;4.20;3.92;;;17.60;99.90;;;;;;5088632;28;20187;-72
2022/06/04 07:26:46;;;;;;;6.72;4.50;;;17.60;99.90;;;;;;5089774;28;20569;-72
2022/06/04 07:29:12;;;;;;;4.53;4.15;;;17.70;99.90;;;;;;5089783;28;20164;-71
2022/06/04 07:31:38;;;;;;;4.10;3.83;;;17.70;99.90;;;;;;5089725;28;20641;-72
2022/06/04 07:34:05;;;;;;;4.40;4.10;;;17.80;99.90;;;;;;5075486;28;20187;-73
2022/06/04 07:36:36;;;;;;;4.00;3.70;;;17.90;99.90;;;;;;5076140;28;20251;-72
2022/06/04 07:39:04;;;;;;;6.90;3.85;;;18.00;99.90;;;;;;5076188;28;20657;-72
2022/06/04 07:41:38;;;;;;;4.45;3.88;;;18.10;99.90;;;;;;5075680;28;20203;-72
2022/06/04 07:44:05;;;;;;;4.97;4.30;;;18.20;99.90;;;;;;5075839;28;20188;-72
2022/06/04 07:46:31;;;;;;;4.95;4.47;;;18.30;99.90;;;;;;5075807;28;20245;-72
2022/06/04 07:49:03;;;;;;;4.60;4.22;;;18.40;99.90;;;;;;5074471;28;20652;-72
2022/06/04 07:51:30;;;;;;;4.90;4.60;;;18.50;99.90;;;;;;5075869;28;20564;-71
2022/06/04 07:53:56;;;;;;;4.93;4.45;;;18.70;99.90;;;;;;5075735;28;20648;-72
2022/06/04 07:56:23;;;;;;;4.35;4.05;;;18.80;99.90;;;;;;5075732;28;20180;-72
2022/06/04 07:58:49;;;;;;;4.65;4.15;;;18.90;99.90;;;;;;5075650;28;20254;-72
2022/06/04 08:01:19;;;;;;;4.82;4.13;;;18.90;99.90;;;;;;5074312;28;20278;-72
2022/06/04 08:03:47;;;;;;;4.15;3.83;;;18.90;99.90;;;;;;5074355;28;20644;-72
2022/06/04 08:06:17;;;;;;;4.32;4.13;;;19.00;99.90;;;;;;5075536;28;20164;-72
2022/06/04 08:08:43;;;;;;;4.30;3.90;;;19.10;99.90;;;;;;5075519;28;20177;-72
2022/06/04 08:13:53;;;;;;;5.03;4.68;;;19.20;99.90;;;;;;5075446;28;20182;-72
2022/06/04 08:16:20;;;;;;;4.60;4.30;;;19.30;99.90;;;;;;5075445;28;20629;-72
2022/06/04 08:18:47;;;;;;;5.07;4.13;;;19.40;99.90;;;;;;5073970;28;20183;-72
2022/06/04 08:21:16;;;;;;;4.32;4.00;;;19.40;99.90;;;;;;5074840;28;20224;-72
2022/06/04 08:23:44;;;;;;;4.00;3.70;;;19.40;99.90;;;;;;5075133;28;20637;-72
2022/06/04 08:26:10;;;;;;;4.50;4.15;;;19.40;99.90;;;;;;5075078;28;20167;-72
2022/06/04 08:28:36;;;;;;;4.60;4.20;;;19.40;99.90;;;;;;5074611;28;20168;-72
2022/06/04 08:31:07;;;;;;;6.45;4.18;;;19.50;99.90;;;;;;5074470;28;20297;-72
2022/06/04 08:33:33;;;;;;;4.32;4.13;;;19.50;99.90;;;;;;5074886;28;20175;-72
2022/06/04 08:35:59;;;;;;;4.38;4.18;;;19.70;99.90;;;;;;5075092;28;20194;-72
2022/06/04 08:38:25;;;;;;;4.43;4.10;;;19.70;99.90;;;;;;5074847;28;20172;-72
2022/06/04 08:40:56;;;;;;;4.55;4.18;;;19.70;99.90;;;;;;5074705;28;20238;-72
2022/06/04 08:43:33;;;;;;;4.70;4.40;;;19.80;99.90;;;;;;5074829;28;20176;-72
2022/06/04 08:46:02;;;;;;;4.57;4.28;;;19.90;99.90;;;;;;5073875;28;20168;-72
2022/06/04 08:48:34;;;;;;;4.80;4.43;;;19.90;99.90;;;;;;5074629;28;20156;-73
2022/06/04 08:51:03;;;;;;;4.88;4.38;;;19.90;99.90;;;;;;5074580;28;20660;-71
2022/06/04 08:53:29;;;;;;;5.93;4.07;;;19.90;99.90;;;;;;5074133;28;20539;-72
2022/06/04 08:59:04;;;;;;;4.35;4.00;;;19.90;99.90;;;;;;5074659;28;20210;-72
2022/06/04 09:01:44;;;;;;;5.00;4.70;;;19.90;99.90;;;;;;5074479;28;20200;-72
2022/06/04 09:04:52;;;;;;;5.05;4.60;;;19.90;99.90;;;;;;5073014;28;20168;-72
2022/06/04 09:07:27;;;;;;;4.40;4.00;;;20.00;99.90;;;;;;5073719;28;20176;-72
2022/06/04 09:10:29;;;;;;;4.97;4.53;;;20.10;99.90;;;;;;5073227;28;20262;-72
2022/06/04 09:13:04;;;;;;;5.28;4.88;;;20.10;99.90;;;;;;5073109;28;20193;-72
2022/06/04 09:15:45;;;;;;;4.68;4.40;;;20.20;99.90;;;;;;5074185;28;20250;-72
2022/06/04 09:18:32;;;;;;;5.10;4.10;;;20.40;99.90;;;;;;5074133;28;20426;-72
2022/06/04 09:21:01;;;;;;;4.47;4.18;;;20.50;99.90;;;;;;5072584;28;20215;-71
2022/06/04 09:23:36;;;;;;;4.35;3.97;;;20.60;99.90;;;;;;5073948;28;20259;-72
2022/06/04 09:26:13;;;;;;;5.13;4.70;;;20.70;99.90;;;;;;5073835;28;20236;-72
2022/06/04 09:29:00;;;;;;;5.32;4.53;;;20.70;99.90;;;;;;5073902;28;20160;-72
2022/06/04 09:31:40;;;;;;;7.85;3.90;;;20.70;99.90;;;;;;5073970;28;20258;-72
2022/06/04 09:34:13;;;;;;;4.68;4.00;;;20.80;99.90;;;;;;5073891;28;20175;-72
2022/06/04 09:36:42;;;;;;;3.95;3.75;;;20.90;99.90;;;;;;5073795;28;20632;-72
2022/06/04 09:39:24;;;;;;;6.22;4.70;;;20.90;99.90;;;;;;5073834;28;20297;-72
2022/06/04 09:41:55;;;;;;;6.97;4.30;;;21.10;99.90;;;;;;5073585;28;20193;-72
2022/06/04 09:44:23;;;;;;;5.30;4.90;;;21.20;99.90;;;;;;5073656;28;20164;-72
2022/06/04 09:47:09;;;;;;;4.60;4.35;;;21.30;99.90;;;;;;5055686;28;20201;-72
2022/06/04 09:49:42;;;;;;;4.45;4.10;;;21.30;99.90;;;;;;5073595;28;20225;-72
2022/06/04 09:52:24;;;;;;;5.60;5.15;;;21.30;99.90;;;;;;5073968;28;20253;-72
2022/06/04 09:55:03;;;;;;;4.68;4.28;;;21.40;99.90;;;;;;5073456;28;20199;-72
2022/06/04 09:57:35;;;;;;;5.18;4.30;;;21.40;99.90;;;;;;5072106;28;20171;-72
2022/06/04 10:00:05;;;;;;;4.78;4.47;;;21.40;99.90;;;;;;5073436;28;20175;-72
2022/06/04 10:02:31;;;;;;;4.88;4.68;;;21.50;99.90;;;;;;5073382;28;20281;-72
2022/06/04 10:05:06;;;;;;;4.85;4.55;;;21.60;99.90;;;;;;5073393;28;20203;-72
2022/06/04 10:07:36;;;;;;;5.82;5.40;;;21.60;99.90;;;;;;5072339;28;20172;-72
2022/06/04 10:10:32;;;;;;;5.18;4.88;;;21.60;99.90;;;;;;5073312;28;20168;-72
2022/06/04 10:15:47;;;;;;;6.03;4.80;;;21.70;99.90;;;;;;5073452;28;20167;-72
2022/06/04 10:18:29;;;;;;;5.38;5.03;;;21.70;99.90;;;;;;5073209;28;20168;-72
2022/06/04 10:21:16;;;;;;;6.07;4.40;;;21.70;99.90;;;;;;5071519;28;20258;-72
2022/06/04 10:23:51;;;;;;;4.88;4.57;;;21.70;99.90;;;;;;5073030;28;20172;-72
2022/06/04 10:26:29;;;;;;;6.70;4.68;;;21.80;99.90;;;;;;5071825;28;20637;-72
2022/06/04 10:29:22;;;;;;;5.13;4.75;;;21.80;99.90;;;;;;5073109;28;20530;-72
2022/06/04 10:31:51;;;;;;;4.85;4.53;;;21.80;99.90;;;;;;5073126;28;20209;-72
2022/06/04 10:34:42;;;;;;;5.97;5.47;;;21.80;99.90;;;;;;5072957;28;20176;-72
2022/06/04 10:37:26;;;;;;;5.53;5.13;;;21.80;99.90;;;;;;5073105;28;20168;-72
2022/06/04 10:40:16;;;;;;;4.95;4.55;;;21.80;99.90;;;;;;5073105;28;20629;-72
2022/06/04 10:43:04;;;;;;;5.78;5.35;;;21.80;99.90;;;;;;5072922;28;20665;-72
2022/06/04 10:46:02;;;;;;;4.85;4.50;;;21.70;99.90;;;;;;5073010;28;20171;-72
2022/06/04 10:48:59;;;;;;;7.50;5.25;;;21.80;99.90;;;;;;5072135;28;20179;-72
2022/06/04 10:51:39;;;;;;;5.50;5.10;;;21.80;99.90;;;;;;5071700;28;20229;-72
2022/06/04 10:54:29;;;;;;;7.80;5.60;;;21.80;99.90;;;;;;5072984;28;20167;-72
2022/06/04 10:57:20;;;;;;;7.70;5.53;;;21.80;99.90;;;;;;5072931;28;20178;-72
2022/06/04 10:59:59;;;;;;;5.40;4.90;;;21.80;99.90;;;;;;5072911;28;20644;-72
2022/06/04 11:02:45;;;;;;;7.70;5.53;;;21.80;99.90;;;;;;5071446;28;20242;-72
2022/06/04 11:05:27;;;;;;;5.93;5.40;;;21.80;99.90;;;;;;5072855;28;20168;-72
2022/06/04 11:08:00;;;;;;;5.20;4.85;;;21.80;99.90;;;;;;5073666;28;20250;-72
2022/06/04 11:10:52;;;;;;;5.93;5.40;;;21.80;99.90;;;;;;5076595;28;20171;-72
2022/06/04 11:13:31;;;;;;;5.85;5.45;;;21.80;99.90;;;;;;5076511;28;20164;-72
2022/06/04 11:16:21;;;;;;;5.38;4.90;;;21.80;99.90;;;;;;5075042;28;20171;-72
2022/06/04 11:19:13;;;;;;;4.88;4.65;;;21.90;99.90;;;;;;5076401;28;20175;-72
2022/06/04 11:22:13;;;;;;;6.40;5.18;;;22.00;99.90;;;;;;5076109;28;20680;-72
2022/06/04 11:24:55;;;;;;;5.50;5.07;;;22.10;99.90;;;;;;5074780;28;20188;-72
2022/06/04 11:27:36;;;;;;;5.55;5.20;;;22.20;99.90;;;;;;5075159;28;20175;-72
2022/06/04 11:30:06;;;;;;;5.07;4.68;;;22.20;99.90;;;;;;5076138;28;20502;-72
2022/06/04 11:32:49;;;;;;;5.28;4.93;;;22.20;99.90;;;;;;5075050;28;20179;-72
2022/06/04 11:35:41;;;;;;;5.50;5.10;;;22.10;99.90;;;;;;5076108;28;20168;-72
2022/06/04 11:38:11;;;;;;;5.38;4.93;;;22.10;99.90;;;;;;5059411;28;20540;-72
2022/06/04 11:41:09;;;;;;;4.88;4.60;;;22.20;99.90;;;;;;5075847;28;20188;-72
2022/06/04 11:44:01;;;;;;;6.25;5.25;;;22.30;99.90;;;;;;5075951;28;20160;-72
2022/06/04 11:47:02;;;;;;;6.63;5.50;;;22.40;99.90;;;;;;5075898;28;20558;-72
2022/06/04 11:49:38;;;;;;;5.57;5.07;;;22.50;99.90;;;;;;5075666;28;20640;-72
2022/06/04 11:52:22;;;;;;;5.43;4.60;;;22.50;99.90;;;;;;5075831;28;20171;-72
2022/06/04 11:54:53;;;;;;;5.28;4.80;;;22.40;99.90;;;;;;5075744;28;20229;-72
2022/06/04 11:57:22;;;;;;;5.25;4.95;;;22.40;99.90;;;;;;5075638;28;20652;-72
2022/06/04 11:59:59;;;;;;;5.38;4.97;;;22.50;99.90;;;;;;5075588;28;20172;-72
2022/06/04 12:02:29;;;;;;;4.80;4.40;;;22.70;99.90;;;;;;5075499;28;20291;-72
2022/06/04 12:05:10;;;;;;;5.18;4.78;;;22.80;99.90;;;;;;5075511;28;20200;-72
2022/06/04 12:07:42;;;;;;;4.50;4.10;;;23.10;99.90;;;;;;5075478;28;20178;-72
2022/06/04 12:10:33;;;;;;;5.25;4.80;;;23.30;99.90;;;;;;5074080;28;20173;-72
2022/06/04 12:13:45;;;;;;;4.32;3.45;;;23.60;99.90;;;;;;5075581;28;20164;-72
2022/06/04 12:16:19;;;;;;;4.05;3.70;;;23.90;99.90;;;;;;5075327;28;20211;-72
2022/06/04 12:18:56;;;;;;;4.78;4.43;;;24.10;99.90;;;;;;5075288;28;20171;-72
2022/06/04 12:24:22;;;;;;;4.03;3.83;;;24.40;99.90;;;;;;5075786;28;20679;-72
2022/06/04 12:26:49;;;;;;;4.63;4.22;;;24.60;99.90;;;;;;5075271;28;20164;-72
2022/06/04 12:29:32;;;;;;;4.10;3.80;;;24.60;99.90;;;;;;5075378;28;20614;-72
2022/06/04 12:32:18;;;;;;;4.53;4.03;;;24.70;99.90;;;;;;5075259;28;20178;-72
2022/06/04 12:34:44;;;;;;;4.55;4.13;;;24.80;99.90;;;;;;5073935;28;20522;-72
2022/06/04 12:37:22;;;;;;;4.20;3.45;;;25.00;99.90;;;;;;5074963;28;20172;-72
2022/06/04 12:39:48;;;;;;;3.35;3.15;;;25.30;99.90;;;;;;5074853;28;20186;-72
2022/06/04 12:42:26;;;;;;;6.07;3.80;;;25.60;99.90;;;;;;5074767;28;20575;-72
2022/06/04 12:45:04;;;;;;;4.60;4.20;;;25.80;99.90;;;;;;5073567;28;20570;-72
2022/06/04 12:47:34;;;;;;;3.85;3.55;;;25.90;99.90;;;;;;5074647;28;20624;-72
2022/06/04 12:50:02;;;;;;;4.22;3.97;;;26.00;99.90;;;;;;5074674;28;20644;-73
2022/06/04 12:52:40;;;;;;;8.30;3.55;;;25.90;99.90;;;;;;5074534;28;20200;-73
2022/06/04 12:55:20;;;;;;;3.83;3.42;;;26.00;99.90;;;;;;5074560;28;20168;-74
2022/06/04 12:57:58;;;;;;;3.97;3.45;;;26.00;99.90;;;;;;5074521;28;20160;-70
2022/06/04 13:00:41;;;;;;;4.15;3.78;;;26.00;99.90;;;;;;5074443;28;20163;-71
2022/06/04 13:03:06;;;;;;;4.82;4.35;;;26.10;99.90;;;;;;5074299;28;20179;-70
2022/06/04 13:05:34;;;;;;;3.60;3.40;;;26.10;99.90;;;;;;5074325;28;20160;-70
2022/06/04 13:08:18;;;;;;;4.65;3.45;;;26.20;99.90;;;;;;5074258;28;20196;-70
2022/06/04 13:10:53;;;;;;;3.33;3.13;;;26.20;99.90;;;;;;5074059;28;20498;-70
2022/06/04 13:13:48;;;;;;;4.72;3.20;;;26.20;99.90;;;;;;5072967;28;20167;-70
2022/06/04 13:16:24;;;;;;;3.55;3.30;;;26.20;99.90;;;;;;5074159;28;20690;-70
2022/06/04 13:19:28;;;;;;;3.65;3.30;;;26.10;99.90;;;;;;5072773;28;20237;-70
2022/06/04 13:21:58;;;;;;;4.20;3.50;;;26.10;99.90;;;;;;5072997;28;20227;-70
2022/06/04 13:24:26;;;;;;;4.20;3.90;;;26.10;99.90;;;;;;5072678;28;20218;-70
2022/06/04 13:26:58;;;;;;;4.10;3.78;;;26.30;99.90;;;;;;5073955;28;20184;-70
2022/06/04 13:29:33;;;;;;;3.13;2.90;;;26.40;99.90;;;;;;5073857;28;20226;-70
2022/06/04 13:32:09;;;;;;;3.65;3.35;;;26.60;99.90;;;;;;5073362;28;20194;-70
2022/06/04 13:34:35;;;;;;;3.38;3.17;;;26.70;99.90;;;;;;5073824;28;20655;-70
2022/06/04 13:37:05;;;;;;;3.25;3.05;;;26.80;99.90;;;;;;5073753;28;20183;-70
2022/06/04 13:39:32;;;;;;;4.97;3.15;;;27.00;99.90;;;;;;5072457;28;20167;-71
2022/06/04 13:42:11;;;;;;;3.38;3.08;;;27.10;99.90;;;;;;5073761;28;20170;-70
2022/06/04 13:45:01;;;;;;;3.05;2.85;;;27.20;99.90;;;;;;5072464;28;20179;-70
2022/06/04 13:47:30;;;;;;;3.45;3.25;;;27.30;99.90;;;;;;5073666;28;20168;-70
2022/06/04 13:50:08;;;;;;;6.47;3.78;;;27.30;99.90;;;;;;5073576;28;20637;-71
2022/06/04 13:52:54;;;;;;;3.80;3.35;;;27.40;99.90;;;;;;5073484;28;20199;-71
2022/06/04 13:55:44;;;;;;;3.33;3.10;;;27.40;99.90;;;;;;5073517;28;20177;-71
2022/06/04 13:58:16;;;;;;;6.10;2.92;;;27.50;99.90;;;;;;5073444;28;20548;-71
2022/06/04 14:00:46;;;;;;;3.63;3.28;;;27.50;99.90;;;;;;5073449;28;20175;-71
2022/06/04 14:03:21;;;;;;;4.30;3.63;;;27.40;99.90;;;;;;5073349;28;20172;-71
2022/06/04 14:05:51;;;;;;;4.28;3.53;;;27.40;99.90;;;;;;5073422;28;20215;-71
2022/06/04 14:08:30;;;;;;;3.38;3.08;;;27.70;99.90;;;;;;5073411;28;20169;-71
2022/06/04 14:11:02;;;;;;;5.15;2.80;;;27.70;99.90;;;;;;5073253;28;20661;-71
2022/06/04 14:13:42;;;;;;;4.70;3.28;;;27.80;99.90;;;;;;5073289;28;20294;-71
2022/06/04 14:16:29;;;;;;;5.15;2.97;;;27.90;99.90;;;;;;5073303;28;20168;-71
2022/06/04 14:19:19;;;;;;;3.42;3.22;;;28.00;99.90;;;;;;5073245;28;20163;-71
2022/06/04 14:21:54;;;;;;;4.35;3.03;;;28.10;99.90;;;;;;5073211;28;20226;-71
2022/06/04 14:24:25;;;;;;;3.42;3.20;;;28.30;99.90;;;;;;5073219;28;20673;-71
2022/06/04 14:27:25;;;;;;;3.47;3.00;;;28.40;99.90;;;;;;5073187;28;20226;-71
2022/06/04 14:30:10;;;;;;;3.08;2.97;;;28.60;99.90;;;;;;5073077;28;20174;-71
2022/06/04 14:32:46;;;;;;;2.90;2.70;;;28.70;99.90;;;;;;5073089;28;20275;-71
2022/06/04 14:35:30;;;;;;;3.63;2.85;;;28.80;99.90;;;;;;5073098;28;20258;-71
2022/06/04 14:38:04;;;;;;;3.25;2.90;;;28.90;99.90;;;;;;5073096;28;20170;-71
2022/06/04 14:40:55;;;;;;;3.13;2.83;;;28.70;99.90;;;;;;5071797;28;20252;-71
2022/06/04 14:43:36;;;;;;;2.70;2.60;;;28.80;99.90;;;;;;5074489;28;20263;-71
2022/06/04 14:46:23;;;;;;;3.25;3.05;;;28.80;99.90;;;;;;5077102;28;20226;-71
2022/06/04 14:49:12;;;;;;;3.80;2.75;;;28.80;99.90;;;;;;5077034;28;20198;-71
2022/06/04 14:51:54;;;;;;;3.20;2.60;;;28.90;99.90;;;;;;5076749;28;20248;-71
2022/06/04 14:54:21;;;;;;;2.75;2.65;;;29.00;99.90;;;;;;5075841;28;20186;-71
2022/06/04 14:57:06;;;;;;;2.03;1.92;;;29.10;99.90;;;;;;5076802;28;20167;-71
2022/06/04 15:00:14;;;;;;;2.70;2.50;;;29.20;99.90;;;;;;5076807;28;20538;-71
2022/06/04 15:03:10;;;;;;;3.85;2.83;;;29.20;99.90;;;;;;5076791;28;20174;-71
2022/06/04 15:05:59;;;;;;;5.40;2.50;;;29.30;99.90;;;;;;5076696;28;20187;-71
2022/06/04 15:08:58;;;;;;;2.53;2.30;;;29.40;99.90;;;;;;5076599;28;20164;-71
2022/06/04 15:11:47;;;;;;;2.28;2.17;;;29.60;99.90;;;;;;5075065;28;20195;-71
2022/06/04 15:14:37;;;;;;;2.80;2.45;;;29.80;99.90;;;;;;5076488;28;20168;-71
2022/06/04 15:17:03;;;;;;;3.30;2.67;;;29.70;99.90;;;;;;5076512;28;20556;-71
2022/06/04 15:20:06;;;;;;;2.80;2.70;;;29.70;99.90;;;;;;5075115;28;20171;-71
2022/06/04 15:22:43;;;;;;;2.47;2.30;;;29.70;99.90;;;;;;5076161;28;20207;-71
2022/06/04 15:25:33;;;;;;;3.13;2.53;;;29.70;99.90;;;;;;5076274;28;20167;-71
2022/06/04 15:33:52;;;;;;;2.50;2.30;;;29.60;99.90;;;;;;5076191;28;20720;-71
2022/06/04 15:34:03;;;;;;;3.90;2.50;;;29.50;99.90;;;;;;5076252;28;20219;-71
2022/06/04 15:36:57;;;;;;;2.47;2.30;;;29.70;99.90;;;;;;5076088;28;20171;-71
2022/06/04 15:39:31;;;;;;;2.60;2.38;;;29.70;99.90;;;;;;5075992;28;20729;-71
2022/06/04 15:42:06;;;;;;;3.08;2.88;;;29.80;99.90;;;;;;5075975;28;20167;-71
2022/06/04 15:44:33;;;;;;;2.33;2.22;;;29.80;99.90;;;;;;5075939;28;20167;-71
2022/06/04 15:47:07;;;;;;;2.65;2.55;;;29.90;99.90;;;;;;5074601;28;20509;-71
2022/06/04 15:55:46;;;;;;;2.03;1.92;;;30.00;99.90;;;;;;5075713;28;20175;-71
2022/06/04 15:58:17;;;;;;;2.65;2.42;;;29.90;99.90;;;;;;5075702;28;20528;-71
2022/06/04 16:00:53;;;;;;;2.25;2.03;;;30.10;99.90;;;;;;5075657;28;20214;-71
2022/06/04 16:03:32;;;;;;;3.67;2.30;;;30.00;99.90;;;;;;5075564;28;20166;-71
2022/06/04 16:06:04;;;;;;;2.72;1.98;;;30.00;99.90;;;;;;5075631;28;20178;-71
2022/06/04 16:08:30;;;;;;;2.22;2.13;;;30.10;99.90;;;;;;5074353;28;20168;-71
2022/06/04 16:11:13;;;;;;;2.10;2.00;;;30.20;99.90;;;;;;5075467;28;20168;-71
2022/06/04 16:13:46;;;;;;;3.47;2.25;;;30.10;99.90;;;;;;5075464;28;20202;-71
2022/06/04 16:16:50;;;;;;;2.10;2.00;;;30.30;99.90;;;;;;5075378;28;20171;-71
2022/06/04 16:19:24;;;;;;;2.42;2.17;;;30.30;99.90;;;;;;5075351;28;20160;-71
2022/06/04 16:22:20;;;;;;;2.30;2.20;;;30.40;99.90;;;;;;5075097;28;20219;-71
2022/06/04 16:25:16;;;;;;;2.45;2.25;;;30.20;99.90;;;;;;5075201;28;20172;-71
2022/06/04 16:28:00;;;;;;;2.08;1.98;;;30.20;99.90;;;;;;5075144;28;20176;-71
2022/06/04 16:30:27;;;;;;;2.00;1.90;;;30.20;99.90;;;;;;5075081;28;20175;-71
2022/06/04 16:33:18;;;;;;;2.15;2.05;;;30.20;99.90;;;;;;5074943;28;20213;-71
2022/06/04 16:35:47;;;;;;;4.47;2.40;;;30.10;99.90;;;;;;5075017;28;20196;-71
2022/06/04 16:38:29;;;;;;;2.55;2.30;;;30.00;99.90;;;;;;5074975;28;20167;-71
2022/06/04 16:43:46;;;;;;;2.17;2.08;;;29.90;99.90;;;;;;5075137;28;20179;-71
2022/06/04 16:46:15;;;;;;;2.42;2.22;;;29.80;99.90;;;;;;5074803;28;20168;-71
2022/06/04 16:48:41;;;;;;;3.20;1.88;;;29.90;99.90;;;;;;5074737;28;20164;-71
2022/06/04 16:51:10;;;;;;;2.47;2.38;;;30.10;99.90;;;;;;5074609;28;20197;-71
2022/06/04 16:53:38;;;;;;;3.13;2.33;;;30.10;99.90;;;;;;5074647;28;20238;-71
2022/06/04 16:56:05;;;;;;;2.15;2.05;;;30.00;99.90;;;;;;5074787;28;20517;-71
2022/06/04 16:58:31;;;;;;;3.13;1.90;;;30.00;99.90;;;;;;5073261;28;20176;-71
2022/06/04 17:01:24;;;;;;;2.22;2.13;;;29.90;99.90;;;;;;5074460;28;20164;-71
2022/06/04 17:03:56;;;;;;;5.40;2.22;;;29.90;99.90;;;;;;5070843;28;20171;-71
2022/06/04 17:06:38;;;;;;;2.30;2.20;;;29.90;99.90;;;;;;5073690;28;20254;-71
2022/06/04 17:09:19;;;;;;;2.28;2.17;;;29.80;99.90;;;;;;5074306;28;20163;-71
2022/06/04 17:12:15;;;;;;;3.20;2.35;;;29.70;99.90;;;;;;5074192;28;20674;-71
2022/06/04 17:15:13;;;;;;;2.42;2.30;;;29.70;99.90;;;;;;5074228;28;20667;-71
2022/06/04 17:18:06;;;;;;;2.33;2.22;;;29.70;99.90;;;;;;5074004;28;20318;-71
2022/06/04 17:20:37;;;;;;;2.35;2.17;;;29.70;99.90;;;;;;5073875;28;20171;-71
2022/06/04 17:23:21;;;;;;;2.15;2.05;;;29.50;99.90;;;;;;5074026;28;20195;-71
2022/06/04 17:25:47;;;;;;;4.45;2.28;;;29.40;99.90;;;;;;5073829;28;20633;-71
2022/06/04 17:28:40;;;;;;;2.30;2.20;;;29.40;99.90;;;;;;5073936;28;20229;-71
2022/06/04 17:31:17;;;;;;;5.82;2.05;;;29.10;99.90;;;;;;5073718;28;20207;-71
2022/06/04 17:33:55;;;;;;;2.25;2.15;;;29.00;99.90;;;;;;5072477;28;20671;-71
2022/06/04 17:37:00;;;;;;;3.50;2.40;;;28.90;99.90;;;;;;5072530;28;20221;-71
2022/06/04 17:39:50;;;;;;;2.35;2.17;;;28.70;99.90;;;;;;5072913;28;20192;-71
2022/06/04 17:42:18;;;;;;;2.13;2.03;;;28.70;99.90;;;;;;5073745;28;20200;-71
2022/06/04 17:44:44;;;;;;;2.30;2.08;;;28.60;99.90;;;;;;5073649;28;20255;-71
2022/06/04 17:47:10;;;;;;;3.50;2.30;;;28.40;99.90;;;;;;5073673;28;20175;-72
2022/06/04 17:49:38;;;;;;;2.20;2.10;;;28.30;99.90;;;;;;5073536;28;20168;-71
2022/06/04 17:52:05;;;;;;;2.85;2.35;;;28.10;99.90;;;;;;5072151;28;20207;-71
2022/06/04 17:54:33;;;;;;;2.63;2.20;;;27.90;99.90;;;;;;5073512;28;20239;-71
2022/06/04 17:57:02;;;;;;;2.70;2.50;;;27.90;99.90;;;;;;5072210;28;20254;-71
2022/06/04 17:59:28;;;;;;;2.28;2.17;;;28.00;99.90;;;;;;5072193;28;20710;-71
2022/06/04 18:01:54;;;;;;;7.60;2.63;;;27.90;99.90;;;;;;5073462;28;20176;-71
2022/06/04 18:04:20;;;;;;;2.35;2.25;;;27.80;99.90;;;;;;5073353;28;20186;-71
2022/06/04 18:06:46;;;;;;;3.00;2.45;;;27.70;99.90;;;;;;5073379;28;20175;-71
2022/06/04 18:09:12;;;;;;;2.42;2.22;;;27.50;99.90;;;;;;5073361;28;20236;-71
2022/06/04 18:11:40;;;;;;;2.78;2.35;;;27.40;99.90;;;;;;5073259;28;20231;-71
2022/06/04 18:14:06;;;;;;;3.83;2.70;;;27.30;99.90;;;;;;5073304;28;20156;-71
2022/06/04 18:16:32;;;;;;;2.72;2.25;;;27.10;99.90;;;;;;5073083;28;20570;-71
2022/06/04 18:18:58;;;;;;;2.65;2.22;;;27.00;99.90;;;;;;5073072;28;20266;-71
2022/06/04 18:21:24;;;;;;;2.75;2.63;;;26.80;99.90;;;;;;5071771;28;20246;-71
2022/06/04 18:23:50;;;;;;;2.45;2.20;;;26.70;99.90;;;;;;5073272;28;20294;-71
2022/06/04 18:26:16;;;;;;;3.58;2.47;;;26.60;99.90;;;;;;5073186;28;20229;-71
2022/06/04 18:28:42;;;;;;;2.45;2.30;;;26.40;99.90;;;;;;5071925;28;20561;-71
2022/06/04 18:31:34;;;;;;;2.67;2.33;;;26.20;99.90;;;;;;5073025;28;20219;-71
2022/06/04 18:34:00;;;;;;;2.63;2.42;;;25.80;99.90;;;;;;5072781;28;20673;-71
2022/06/04 18:36:26;;;;;;;2.67;2.47;;;25.60;99.90;;;;;;5073126;28;20159;-71
2022/06/04 18:38:52;;;;;;;2.60;2.40;;;25.50;99.90;;;;;;5073127;28;20178;-71
2022/06/04 18:41:20;;;;;;;2.80;2.70;;;25.50;99.90;;;;;;5073096;28;20255;-71
2022/06/04 18:54:53;;;;;;;3.08;2.60;;;25.00;99.90;;;;;;5073019;28;20233;-71
2022/06/04 18:57:20;;;;;;;3.28;2.45;;;24.80;99.90;;;;;;5071643;28;20179;-70
2022/06/04 18:59:46;;;;;;;2.80;2.60;;;24.50;99.90;;;;;;5072882;28;20255;-71
2022/06/04 19:02:14;;;;;;;2.50;2.40;;;24.30;99.90;;;;;;5072858;28;20175;-71
2022/06/04 19:04:41;;;;;;;2.70;2.60;;;24.00;99.90;;;;;;5072763;28;20175;-70
2022/06/04 19:08:16;;;;;;;3.30;2.65;;;23.70;99.90;;;;;;5072854;28;20656;-71
2022/06/04 19:09:53;;;;;;;3.28;2.60;;;23.50;99.90;;;;;;5072618;28;20534;-71
2022/06/04 19:15:05;;;;;;;3.55;2.22;;;23.10;99.90;;;;;;5072760;28;20214;-71
2022/06/04 19:17:31;;;;;;;2.85;2.75;;;22.80;99.90;;;;;;5071426;28;20168;-71
2022/06/04 19:25:28;;;;;;;2.42;2.33;;;22.30;99.90;;;;;;5072636;28;20255;-71
